createdAt,value
2023-02-02T00:02:11.143Z,1.25
2023-02-02T00:04:38.093Z,1.60
2023-02-02T00:07:05.751Z,1.10
2023-02-02T00:09:33.501Z,1.42
2023-02-02T00:12:01.239Z,1.15
2023-02-02T00:14:28.498Z,1.50
2023-02-02T00:16:56.998Z,1.62
2023-02-02T00:19:28.670Z,1.73
2023-02-02T00:21:55.717Z,1.85
2023-02-02T00:24:23.276Z,1.40
2023-02-02T00:26:52.941Z,1.60
2023-02-02T00:29:22.741Z,2.17
2023-02-02T00:31:50.019Z,2.42
2023-02-02T00:34:17.483Z,1.95
2023-02-02T00:36:45.361Z,1.70
2023-02-02T00:39:18.653Z,1.48
2023-02-02T00:41:46.086Z,1.37
2023-02-02T00:44:31.461Z,1.60
2023-02-02T00:46:58.492Z,1.30
2023-02-02T00:49:25.323Z,1.27
2023-02-02T00:54:18.921Z,1.10
2023-02-02T00:56:45.800Z,1.25
2023-02-02T00:59:12.702Z,1.10
2023-02-02T01:01:39.606Z,1.42
2023-02-02T01:04:06.654Z,1.10
2023-02-02T01:06:33.602Z,1.40
2023-02-02T01:09:00.514Z,1.05
2023-02-02T01:11:27.407Z,1.30
2023-02-02T01:13:54.278Z,1.00
2023-02-02T01:16:22.697Z,1.20
2023-02-02T01:18:50.970Z,1.20
2023-02-02T01:21:18.019Z,1.00
2023-02-02T01:23:44.921Z,1.30
2023-02-02T01:26:12.901Z,1.20
2023-02-02T01:28:40.329Z,1.40
2023-02-02T01:31:12.685Z,1.35
2023-02-02T01:33:40.117Z,1.20
2023-02-02T01:36:10.984Z,1.27
2023-02-02T01:38:38.048Z,1.50
2023-02-02T01:41:05.487Z,1.00
2023-02-02T01:43:44.376Z,1.25
2023-02-02T01:46:16.939Z,1.48
2023-02-02T01:48:57.329Z,1.20
2023-02-02T01:51:30.670Z,1.10
2023-02-02T01:53:58.710Z,0.95
2023-02-02T01:56:37.509Z,1.20
2023-02-02T01:59:05.599Z,1.15
2023-02-02T02:01:33.457Z,1.20
2023-02-02T02:04:00.332Z,1.48
2023-02-02T02:06:27.373Z,1.10
2023-02-02T02:09:09.010Z,1.20
2023-02-02T02:11:36.390Z,1.48
2023-02-02T02:14:26.626Z,1.30
2023-02-02T02:16:58.898Z,1.60
2023-02-02T02:20:18.372Z,1.55
2023-02-02T02:23:34.099Z,1.83
2023-02-02T02:26:34.281Z,1.85
2023-02-02T02:29:30.430Z,1.73
2023-02-02T02:32:19.043Z,1.83
2023-02-02T02:34:56.805Z,1.30
2023-02-02T02:37:32.696Z,1.40
2023-02-02T02:40:22.214Z,1.40
2023-02-02T02:42:58.958Z,1.23
2023-02-02T02:45:27.811Z,1.10
2023-02-02T02:47:55.435Z,1.10
2023-02-02T02:50:22.946Z,1.25
2023-02-02T02:52:56.802Z,1.30
2023-02-02T02:55:24.538Z,1.15
2023-02-02T02:58:11.132Z,1.05
2023-02-02T03:00:44.125Z,1.10
2023-02-02T03:03:32.361Z,1.10
2023-02-02T03:06:13.152Z,0.80
2023-02-02T03:08:43.003Z,0.70
2023-02-02T03:11:11.816Z,0.52
2023-02-02T03:13:39.293Z,0.88
2023-02-02T03:16:06.371Z,0.52
2023-02-02T03:18:33.864Z,0.57
2023-02-02T03:21:00.765Z,0.70
2023-02-02T03:25:55.238Z,0.37
2023-02-02T03:28:23.760Z,0.60
2023-02-02T03:30:51.612Z,0.43
2023-02-02T03:33:18.929Z,0.40
2023-02-02T03:35:45.813Z,0.52
2023-02-02T03:40:40.606Z,0.50
2023-02-02T03:43:07.471Z,0.40
2023-02-02T03:48:05.942Z,0.50
2023-02-02T03:50:33.551Z,0.60
2023-02-02T03:53:00.514Z,0.60
2023-02-02T03:55:27.361Z,0.68
2023-02-02T04:00:21.508Z,0.52
2023-02-02T04:02:48.436Z,0.60
2023-02-02T04:05:15.363Z,0.40
2023-02-02T04:07:42.277Z,0.77
2023-02-02T04:12:36.142Z,0.70
2023-02-02T04:17:30.053Z,0.60
2023-02-02T04:19:58.654Z,0.75
2023-02-02T04:22:26.505Z,1.52
2023-02-02T04:24:53.394Z,0.70
2023-02-02T04:29:47.089Z,0.73
2023-02-02T04:32:17.790Z,0.90
2023-02-02T04:34:45.068Z,0.70
2023-02-02T04:37:12.172Z,0.80
2023-02-02T04:39:39.133Z,0.70
2023-02-02T04:42:06.074Z,0.77
2023-02-02T04:44:33.055Z,0.70
2023-02-02T04:46:59.909Z,0.80
2023-02-02T04:51:53.497Z,1.02
2023-02-02T04:56:47.161Z,0.80
2023-02-02T04:59:14.009Z,0.75
2023-02-02T05:01:41.061Z,0.70
2023-02-02T05:06:34.772Z,0.90
2023-02-02T05:11:28.516Z,0.80
2023-02-02T05:13:55.636Z,0.73
2023-02-02T05:16:24.098Z,0.70
2023-02-02T05:18:52.792Z,0.57
2023-02-02T05:21:20.801Z,0.90
2023-02-02T05:23:47.839Z,0.73
2023-02-02T05:26:21.656Z,0.57
2023-02-02T05:28:48.730Z,0.60
2023-02-02T05:31:15.766Z,0.77
2023-02-02T05:33:42.816Z,0.82
2023-02-02T05:36:10.108Z,1.33
2023-02-02T05:38:36.969Z,0.90
2023-02-02T05:43:32.166Z,0.80
2023-02-02T05:45:59.563Z,0.50
2023-02-02T05:48:26.903Z,0.60
2023-02-02T05:51:04.999Z,0.90
2023-02-02T05:53:32.224Z,1.00
2023-02-02T05:55:59.318Z,1.10
2023-02-02T05:58:26.295Z,0.88
2023-02-02T06:00:54.994Z,1.10
2023-02-02T06:03:23.603Z,1.00
2023-02-02T06:05:50.568Z,1.12
2023-02-02T06:10:44.342Z,1.05
2023-02-02T06:13:11.638Z,1.30
2023-02-02T06:15:38.735Z,1.65
2023-02-02T06:18:08.689Z,1.10
2023-02-02T06:20:35.845Z,1.10
2023-02-02T06:23:03.033Z,1.02
2023-02-02T06:25:29.881Z,1.20
2023-02-02T06:30:28.036Z,1.10
2023-02-02T06:32:55.105Z,1.12
2023-02-02T06:35:22.511Z,1.17
2023-02-02T06:37:49.703Z,1.10
2023-02-02T06:40:16.892Z,0.85
2023-02-02T06:42:43.745Z,0.85
2023-02-02T06:47:37.710Z,0.83
2023-02-02T06:50:04.987Z,1.20
2023-02-02T06:52:31.853Z,0.93
2023-02-02T06:57:25.466Z,1.00
2023-02-02T06:59:52.470Z,0.93
2023-02-02T07:02:19.559Z,0.90
2023-02-02T07:04:46.455Z,0.88
2023-02-02T07:09:39.965Z,0.90
2023-02-02T07:14:33.723Z,1.05
2023-02-02T07:17:00.615Z,1.00
2023-02-02T07:21:54.190Z,1.40
2023-02-02T07:26:47.750Z,0.90
2023-02-02T07:29:14.748Z,0.55
2023-02-02T07:31:41.801Z,0.52
2023-02-02T07:34:08.795Z,0.50
2023-02-02T07:36:36.019Z,0.65
2023-02-02T07:39:05.153Z,0.60
2023-02-02T07:41:32.407Z,0.70
2023-02-02T07:43:59.315Z,0.80
2023-02-02T07:46:26.215Z,0.57
2023-02-02T07:48:57.223Z,0.65
2023-02-02T07:51:25.583Z,0.50
2023-02-02T07:53:54.081Z,0.52
2023-02-02T07:56:23.679Z,0.80
2023-02-02T07:58:52.791Z,0.60
2023-02-02T08:01:23.016Z,0.60
2023-02-02T08:03:50.901Z,0.80
2023-02-02T08:06:26.506Z,0.60
2023-02-02T08:08:53.443Z,0.65
2023-02-02T08:11:22.390Z,0.80
2023-02-02T08:13:53.119Z,0.88
2023-02-02T08:16:20.925Z,0.70
2023-02-02T08:18:48.648Z,0.57
2023-02-02T08:21:16.670Z,0.98
2023-02-02T08:23:44.117Z,0.80
2023-02-02T08:26:13.953Z,0.80
2023-02-02T08:28:41.904Z,0.80
2023-02-02T08:31:18.189Z,1.00
2023-02-02T08:33:45.505Z,0.82
2023-02-02T08:36:14.141Z,1.05
2023-02-02T08:38:41.365Z,0.80
2023-02-02T08:41:10.296Z,1.25
2023-02-02T08:43:37.604Z,1.00
2023-02-02T08:46:05.795Z,1.00
2023-02-02T08:48:34.443Z,1.00
2023-02-02T08:51:01.970Z,1.30
2023-02-02T08:53:29.493Z,1.20
2023-02-02T08:56:10.144Z,1.12
2023-02-02T08:58:37.042Z,1.10
2023-02-02T09:01:08.911Z,1.27
2023-02-02T09:03:36.117Z,1.25
2023-02-02T09:06:07.440Z,1.30
2023-02-02T09:08:36.366Z,1.40
2023-02-02T09:11:10.488Z,1.05
2023-02-02T09:13:38.292Z,1.08
2023-02-02T09:16:07.074Z,1.10
2023-02-02T09:18:33.945Z,1.12
2023-02-02T09:21:02.736Z,1.00
2023-02-02T09:23:31.249Z,1.05
2023-02-02T09:25:58.511Z,1.10
2023-02-02T09:28:25.349Z,0.95
2023-02-02T09:30:52.288Z,1.10
2023-02-02T09:33:19.156Z,1.20
2023-02-02T09:38:13.150Z,1.20
2023-02-02T09:43:30.616Z,1.30
2023-02-02T09:46:20.885Z,1.10
2023-02-02T09:49:04.923Z,1.20
2023-02-02T09:51:42.228Z,1.20
2023-02-02T09:56:50.958Z,1.52
2023-02-02T09:59:23.477Z,1.60
2023-02-02T10:01:55.593Z,1.30
2023-02-02T10:04:35.746Z,1.35
2023-02-02T10:07:33.704Z,1.65
2023-02-02T10:10:11.123Z,1.70
2023-02-02T10:12:56.200Z,1.80
2023-02-02T10:16:01.799Z,2.35
2023-02-02T10:21:14.353Z,1.60
2023-02-02T10:23:45.847Z,2.83
2023-02-02T10:26:39.340Z,1.40
2023-02-02T10:29:19.028Z,1.40
2023-02-02T10:32:12.935Z,1.10
2023-02-02T10:34:45.160Z,1.10
2023-02-02T10:37:42.826Z,1.35
2023-02-02T10:40:21.767Z,1.02
2023-02-02T10:43:45.827Z,1.10
2023-02-02T10:46:26.991Z,1.10
2023-02-02T10:49:14.571Z,1.05
2023-02-02T10:51:42.055Z,1.00
2023-02-02T10:54:50.114Z,1.10
2023-02-02T10:57:37.380Z,1.05
2023-02-02T11:00:13.690Z,1.23
2023-02-02T11:02:40.585Z,1.30
2023-02-02T11:05:32.658Z,1.02
2023-02-02T11:07:59.607Z,1.30
2023-02-02T11:10:26.661Z,1.20
2023-02-02T11:12:57.009Z,1.27
2023-02-02T11:15:30.049Z,1.10
2023-02-02T11:17:56.926Z,1.45
2023-02-02T11:20:24.108Z,1.10
2023-02-02T11:23:01.333Z,1.40
2023-02-02T11:25:34.154Z,1.37
2023-02-02T11:28:20.286Z,1.37
2023-02-02T11:30:52.710Z,1.20
2023-02-02T11:33:28.667Z,1.20
2023-02-02T11:35:57.967Z,1.00
2023-02-02T11:38:25.576Z,1.30
2023-02-02T11:41:07.154Z,1.00
2023-02-02T11:43:44.405Z,1.52
2023-02-02T11:46:24.775Z,1.08
2023-02-02T11:48:59.994Z,3.30
2023-02-02T11:51:29.482Z,1.30
2023-02-02T11:54:08.281Z,1.08
2023-02-02T11:56:37.241Z,1.30
2023-02-02T11:59:04.345Z,1.55
2023-02-02T12:01:39.998Z,1.25
2023-02-02T12:04:16.081Z,1.23
2023-02-02T12:06:43.119Z,1.48
2023-02-02T12:09:15.118Z,1.23
2023-02-02T12:12:02.858Z,1.27
2023-02-02T12:14:35.312Z,1.20
2023-02-02T12:17:12.214Z,1.40
2023-02-02T12:19:51.861Z,1.30
2023-02-02T12:22:38.790Z,1.40
2023-02-02T12:25:24.286Z,1.12
2023-02-02T12:28:19.281Z,1.30
2023-02-02T12:31:11.249Z,1.25
2023-02-02T12:33:50.712Z,1.27
2023-02-02T12:36:32.962Z,1.40
2023-02-02T12:39:18.561Z,1.30
2023-02-02T12:42:04.288Z,1.17
2023-02-02T12:44:46.290Z,1.00
2023-02-02T12:47:16.158Z,1.37
2023-02-02T12:50:09.657Z,1.30
2023-02-02T12:53:21.493Z,1.50
2023-02-02T12:55:53.225Z,1.10
2023-02-02T12:58:47.160Z,1.37
2023-02-02T13:01:25.489Z,1.40
2023-02-02T13:04:17.894Z,1.37
2023-02-02T13:07:08.193Z,1.23
2023-02-02T13:09:50.089Z,1.42
2023-02-02T13:12:20.308Z,1.40
2023-02-02T13:14:51.651Z,1.25
2023-02-02T13:17:33.126Z,1.50
2023-02-02T13:20:04.695Z,1.37
2023-02-02T13:22:43.233Z,1.52
2023-02-02T13:25:19.872Z,1.10
2023-02-02T13:27:49.816Z,1.37
2023-02-02T13:30:31.668Z,1.37
2023-02-02T13:33:06.539Z,1.60
2023-02-02T13:35:55.711Z,1.27
2023-02-02T13:38:28.336Z,1.00
2023-02-02T13:40:57.464Z,1.30
2023-02-02T13:43:58.654Z,1.40
2023-02-02T13:46:37.020Z,1.10
2023-02-02T13:49:23.289Z,1.20
2023-02-02T13:51:56.068Z,1.62
2023-02-02T13:54:26.076Z,1.23
2023-02-02T13:57:06.404Z,1.10
2023-02-02T14:00:11.705Z,1.17
2023-02-02T14:02:44.422Z,1.15
2023-02-02T14:05:24.692Z,0.82
2023-02-02T14:08:09.262Z,1.00
2023-02-02T14:10:39.465Z,0.80
2023-02-02T14:13:32.329Z,0.80
2023-02-02T14:16:01.140Z,0.80
2023-02-02T14:18:53.594Z,1.33
2023-02-02T14:21:32.974Z,1.00
2023-02-02T14:24:04.861Z,1.25
2023-02-02T14:26:49.878Z,1.35
2023-02-02T14:29:31.954Z,1.00
2023-02-02T14:32:01.195Z,1.00
2023-02-02T14:34:41.949Z,1.10
2023-02-02T14:37:23.926Z,1.08
2023-02-02T14:40:06.381Z,1.15
2023-02-02T14:43:24.228Z,0.82
2023-02-02T14:46:14.833Z,1.05
2023-02-02T14:48:46.863Z,1.23
2023-02-02T14:51:16.957Z,1.62
2023-02-02T14:53:53.425Z,1.30
2023-02-02T14:56:21.530Z,1.45
2023-02-02T14:59:00.937Z,1.40
2023-02-02T15:01:35.781Z,1.42
2023-02-02T15:04:21.595Z,1.90
2023-02-02T15:06:51.277Z,1.50
2023-02-02T15:09:21.194Z,1.40
2023-02-02T15:12:03.132Z,1.60
2023-02-02T15:14:36.023Z,1.37
2023-02-02T15:17:29.172Z,1.50
2023-02-02T15:20:20.988Z,1.50
2023-02-02T15:22:47.955Z,1.50
2023-02-02T15:27:56.582Z,1.40
2023-02-02T15:30:24.828Z,1.73
2023-02-02T15:32:52.835Z,1.52
2023-02-02T15:35:28.515Z,1.60
2023-02-02T15:38:00.815Z,1.80
2023-02-02T15:40:30.007Z,1.73
2023-02-02T15:43:02.948Z,1.75
2023-02-02T15:45:32.355Z,1.80
2023-02-02T15:48:00.236Z,2.17
2023-02-02T15:50:27.392Z,2.40
2023-02-02T15:52:55.485Z,2.30
2023-02-02T15:55:36.606Z,1.90
2023-02-02T15:58:03.723Z,2.28
2023-02-02T16:00:33.865Z,2.30
2023-02-02T16:03:29.998Z,2.40
2023-02-02T16:05:57.123Z,2.35
2023-02-02T16:08:30.140Z,2.08
2023-02-02T16:11:17.727Z,2.20
2023-02-02T16:13:57.340Z,1.95
2023-02-02T16:16:25.746Z,2.00
2023-02-02T16:19:02.561Z,1.98
2023-02-02T16:21:29.941Z,1.98
2023-02-02T16:23:57.690Z,1.52
2023-02-02T16:26:28.460Z,1.90
2023-02-02T16:28:55.619Z,1.75
2023-02-02T16:31:22.665Z,1.40
2023-02-02T16:33:49.621Z,1.52
2023-02-02T16:36:24.371Z,1.60
2023-02-02T16:38:52.675Z,1.62
2023-02-02T16:41:33.874Z,1.52
2023-02-02T16:44:30.936Z,1.80
2023-02-02T16:46:58.766Z,1.60
2023-02-02T16:49:27.541Z,1.70
2023-02-02T16:52:13.034Z,2.00
2023-02-02T16:54:45.494Z,2.58
2023-02-02T16:57:18.703Z,1.25
2023-02-02T16:59:52.289Z,1.50
2023-02-02T17:02:29.529Z,1.70
2023-02-02T17:05:02.604Z,1.60
2023-02-02T17:07:30.481Z,1.75
2023-02-02T17:10:34.225Z,1.20
2023-02-02T17:13:02.057Z,1.75
2023-02-02T17:15:34.684Z,1.20
2023-02-02T17:18:03.297Z,1.65
2023-02-02T17:20:30.716Z,1.42
2023-02-02T17:23:02.204Z,1.30
2023-02-02T17:25:42.201Z,1.17
2023-02-02T17:28:14.335Z,1.15
2023-02-02T17:30:42.395Z,1.30
2023-02-02T17:33:16.381Z,1.08
2023-02-02T17:35:54.363Z,1.20
2023-02-02T17:38:25.551Z,1.42
2023-02-02T17:40:53.247Z,1.17
2023-02-02T17:43:20.333Z,1.20
2023-02-02T17:45:47.452Z,1.42
2023-02-02T17:48:14.652Z,1.10
2023-02-02T17:50:42.669Z,1.10
2023-02-02T17:53:12.807Z,1.33
2023-02-02T17:55:42.214Z,1.35
2023-02-02T17:58:10.668Z,1.20
2023-02-02T18:00:38.922Z,1.00
2023-02-02T18:03:25.210Z,1.35
2023-02-02T18:05:52.226Z,1.20
2023-02-02T18:08:19.384Z,1.17
2023-02-02T18:10:46.431Z,1.40
2023-02-02T18:13:19.241Z,1.30
2023-02-02T18:15:46.812Z,1.33
2023-02-02T18:18:13.709Z,1.23
2023-02-02T18:23:15.045Z,1.17
2023-02-02T18:25:42.091Z,1.12
2023-02-02T18:28:10.603Z,1.17
2023-02-02T18:30:41.374Z,1.20
2023-02-02T18:33:09.549Z,1.50
2023-02-02T18:35:40.824Z,1.50
2023-02-02T18:38:07.699Z,1.75
2023-02-02T18:43:01.237Z,1.42
2023-02-02T18:47:55.802Z,1.42
2023-02-02T18:50:24.139Z,1.80
2023-02-02T18:52:51.093Z,1.30
2023-02-02T18:55:17.970Z,1.73
2023-02-02T19:00:12.291Z,1.70
2023-02-02T19:02:39.148Z,1.70
2023-02-02T19:07:59.155Z,1.80
2023-02-02T19:10:27.760Z,1.62
2023-02-02T19:13:01.260Z,1.87
2023-02-02T19:15:28.473Z,1.67
2023-02-02T19:17:55.694Z,1.48
2023-02-02T19:20:28.377Z,1.52
2023-02-02T19:23:18.283Z,1.85
2023-02-02T19:25:50.753Z,1.40
2023-02-02T19:28:22.437Z,1.60
2023-02-02T19:30:50.819Z,1.65
2023-02-02T19:33:17.940Z,1.70
2023-02-02T19:35:46.676Z,1.60
2023-02-02T19:38:14.825Z,1.35
2023-02-02T19:40:43.323Z,1.62
2023-02-02T19:43:13.530Z,1.60
2023-02-02T19:45:40.700Z,1.50
2023-02-02T19:48:28.313Z,1.30
2023-02-02T19:50:56.126Z,1.30
2023-02-02T19:53:35.900Z,1.77
2023-02-02T19:56:27.858Z,1.27
2023-02-02T19:58:54.763Z,1.60
2023-02-02T20:03:49.407Z,1.47
2023-02-02T20:06:26.766Z,1.80
2023-02-02T20:11:36.140Z,1.45
2023-02-02T20:14:19.114Z,1.52
2023-02-02T20:16:49.685Z,1.42
2023-02-02T20:19:25.317Z,1.50
2023-02-02T20:21:53.457Z,1.50
2023-02-02T20:24:37.829Z,1.80
2023-02-02T20:27:26.149Z,1.67
2023-02-02T20:29:54.476Z,2.00
2023-02-02T20:32:26.613Z,1.55
2023-02-02T20:34:55.052Z,1.80
2023-02-02T20:37:31.868Z,1.90
2023-02-02T20:40:01.635Z,2.28
2023-02-02T20:42:29.136Z,1.83
2023-02-02T20:44:56.662Z,1.90
2023-02-02T20:47:23.615Z,2.00
2023-02-02T20:49:50.521Z,2.00
2023-02-02T20:52:23.679Z,2.05
2023-02-02T20:54:51.492Z,2.08
2023-02-02T20:57:18.773Z,1.95
2023-02-02T20:59:45.772Z,2.05
2023-02-02T21:02:21.127Z,2.33
2023-02-02T21:04:48.699Z,2.22
2023-02-02T21:07:17.397Z,2.33
2023-02-02T21:09:45.050Z,2.08
2023-02-02T21:12:12.397Z,2.30
2023-02-02T21:14:39.442Z,1.70
2023-02-02T21:17:14.938Z,1.90
2023-02-02T21:19:42.570Z,1.85
2023-02-02T21:22:09.646Z,1.75
2023-02-02T21:24:36.508Z,2.00
2023-02-02T21:29:32.718Z,1.92
2023-02-02T21:32:02.749Z,1.87
2023-02-02T21:34:31.165Z,2.10
2023-02-02T21:36:58.778Z,1.65
2023-02-02T21:39:33.283Z,1.67
2023-02-02T21:42:09.234Z,1.60
2023-02-02T21:44:43.272Z,1.90
2023-02-02T21:47:27.585Z,1.90
2023-02-02T21:49:56.613Z,2.05
2023-02-02T21:52:23.928Z,1.87
2023-02-02T21:54:50.813Z,1.80
2023-02-02T21:57:22.473Z,2.00
2023-02-02T21:59:56.280Z,2.00
2023-02-02T22:02:44.080Z,1.80
2023-02-02T22:05:14.160Z,2.00
2023-02-02T22:07:42.926Z,2.20
2023-02-02T22:10:24.007Z,1.80
2023-02-02T22:12:51.208Z,1.77
2023-02-02T22:15:21.889Z,2.33
2023-02-02T22:17:49.373Z,1.80
2023-02-02T22:20:16.277Z,3.08
2023-02-02T22:25:16.978Z,1.80
2023-02-02T22:27:47.729Z,2.22
2023-02-02T22:30:26.269Z,1.70
2023-02-02T22:32:54.127Z,1.85
2023-02-02T22:35:21.791Z,2.50
2023-02-02T22:37:48.641Z,2.00
2023-02-02T22:42:43.776Z,1.80
2023-02-02T22:45:11.193Z,2.33
2023-02-02T22:47:38.065Z,2.28
2023-02-02T22:52:31.820Z,1.92
2023-02-02T22:57:25.489Z,2.35
2023-02-02T23:02:19.064Z,1.77
2023-02-02T23:04:45.954Z,2.00
2023-02-02T23:09:39.458Z,2.10
2023-02-02T23:14:33.147Z,1.90
2023-02-02T23:19:26.669Z,1.75
2023-02-02T23:24:20.246Z,1.55
2023-02-02T23:29:13.814Z,2.22
2023-02-02T23:34:07.412Z,1.75
2023-02-02T23:39:00.943Z,2.05
2023-02-02T23:43:54.472Z,2.33
2023-02-02T23:48:48.253Z,1.90
2023-02-02T23:51:15.407Z,2.20
2023-02-02T23:53:42.623Z,2.08
2023-02-02T23:56:09.947Z,1.92
2023-02-02T23:58:36.949Z,1.98
